Hauptseite
METAR-TAF:

METAR-TAF

Flughäfen :

San Andrés, Kolumbien

Breite: 12-35N, Länge: 081-43W, Höhe: 1 m

Beobachtung

Neuester Wetterbericht von vor 39 Minuten, um 02:00 UTC
Wind 3 kt aus Ost, variierte zwischen Nordost und Süd/Südost
Temperatur 29°C
Luftfeuchtigkeit 79%
Luftdruck 1008 hPa
Sichtweite 10 km oder mehr
Leicht bewölkt in der Höhe von 1700 ft

METAR: SKSP 180200Z 10003KT 050V150 9999 FEW017 29/25 Q1008

Zeit: 21:39 (02:39 UTC)

Prognose

Neuester Wetterbericht von vor 4 Stunden und 9 Minuten, um 22:30 UTC
Gültige Prognose vom 18 um 00 UTC bis 18 um 24 UTC
Wind 4 kt aus Nord
Sichtweite 10 km oder mehr
Aufgelockert bewölkt in der Höhe von 1600 ft
Zeitweise
vom 18 um 00 UTC bis 18 um 03 UTC
Aufgelockert bewölkt in der Höhe von 1500 ft, Kumulonimbus.
Gewitter, Regen,

TAF: SKSP 172230Z 1800/1824 35004KT 9999 SCT016 TEMPO 1800/1803 TSRA SCT015CB TX30/1819Z TN26/1810Z

Wetterbeobachtungen und Prognosen von mehr als 4000 Flughäfen (METAR und TAF Bericht).

Die verfügbaren Stationen werden durch gelbe und rote Markierungen auf der Karte dargestellt.

Führen Sie die Maus auf sie, um den Namen der Station zu sehen.

Darauf klicken, um die Beobachtung von Wetterbeobachtungen und Prognosen zu sehen.

Um die Karte zu ändern : klicken Sie auf den grünen Tasten mit einem schwarzen Kreuz Zum Vergrößern, auf den grünen Button mit einem Gedankenstrich zu verkleinern, oder auf die grünen Pfeile für benachbarte Karten.


METAR-TAF: